createdAt,value
2022-08-31T00:00:10.738Z,531.3
2022-08-31T00:01:12.461Z,531.5
2022-08-31T00:02:14.386Z,531.5
2022-08-31T00:03:17.617Z,531.5
2022-08-31T00:04:19.591Z,531.6
2022-08-31T00:05:21.147Z,531.7
2022-08-31T00:06:22.682Z,532
2022-08-31T00:07:24.227Z,531.7
2022-08-31T00:08:25.836Z,531.8
2022-08-31T00:09:27.483Z,532
2022-08-31T00:10:39.136Z,532.1
2022-08-31T00:11:42.722Z,531.8
2022-08-31T00:12:44.253Z,531.6
2022-08-31T00:13:45.842Z,531.5
2022-08-31T00:14:47.687Z,531.4
2022-08-31T00:15:49.310Z,531.6
2022-08-31T00:16:51.322Z,531.7
2022-08-31T00:17:53.022Z,531.7
2022-08-31T00:18:54.686Z,531.4
2022-08-31T00:19:56.227Z,531.7
2022-08-31T00:20:57.764Z,531.8
2022-08-31T00:21:59.306Z,531.8
2022-08-31T00:23:01.027Z,531.8
2022-08-31T00:24:02.805Z,531.9
2022-08-31T00:25:04.345Z,532
2022-08-31T00:26:05.886Z,531.7
2022-08-31T00:27:07.535Z,532
2022-08-31T00:28:09.169Z,532.1
2022-08-31T00:29:10.826Z,532.4
2022-08-31T00:30:12.364Z,532.1
2022-08-31T00:31:14.304Z,532.2
2022-08-31T00:32:28.967Z,532.3
2022-08-31T00:33:31.495Z,532.1
2022-08-31T00:34:33.040Z,531.9
2022-08-31T00:35:34.618Z,532.1
2022-08-31T00:36:36.164Z,532.1
2022-08-31T00:37:37.887Z,531.8
2022-08-31T00:38:39.508Z,531.8
2022-08-31T00:39:41.056Z,531.9
2022-08-31T00:40:45.938Z,531.4
2022-08-31T00:41:47.622Z,531.4
2022-08-31T00:42:49.186Z,531.4
2022-08-31T00:43:50.727Z,531.1
2022-08-31T00:44:52.407Z,531.7
2022-08-31T00:45:54.200Z,531.4
2022-08-31T00:46:55.912Z,531
2022-08-31T00:47:57.530Z,530.8
2022-08-31T00:48:59.279Z,530.6
2022-08-31T00:50:00.913Z,530.6
2022-08-31T00:51:02.455Z,530.5
2022-08-31T00:52:04.142Z,530.5
2022-08-31T00:53:05.750Z,530.6
2022-08-31T00:54:07.302Z,530.5
2022-08-31T00:55:08.872Z,530.3
2022-08-31T00:56:10.496Z,530.5
2022-08-31T00:57:12.126Z,530.4
2022-08-31T00:58:13.856Z,530.3
2022-08-31T00:59:15.373Z,530.3
2022-08-31T01:00:16.916Z,530.2
2022-08-31T01:01:19.292Z,530.3
2022-08-31T01:02:21.287Z,530.4
2022-08-31T01:03:22.938Z,530.3
2022-08-31T01:04:24.570Z,530.3
2022-08-31T01:05:26.115Z,530.1
2022-08-31T01:06:30.683Z,530.2
2022-08-31T01:07:32.391Z,530.3
2022-08-31T01:08:34.138Z,530.6
2022-08-31T01:09:35.712Z,530.5
2022-08-31T01:10:37.271Z,530.3
2022-08-31T01:11:38.781Z,530.4
2022-08-31T01:12:40.799Z,530.4
2022-08-31T01:13:42.542Z,530.5
2022-08-31T01:14:44.203Z,530.5
2022-08-31T01:15:45.976Z,530.5
2022-08-31T01:16:48.169Z,530.3
2022-08-31T01:17:49.869Z,530.3
2022-08-31T01:18:51.523Z,530.3
2022-08-31T01:19:53.148Z,530.5
2022-08-31T01:20:54.748Z,530.5
2022-08-31T01:21:56.294Z,530.4
2022-08-31T01:22:57.888Z,530.5
2022-08-31T01:23:59.434Z,530.6
2022-08-31T01:25:01.007Z,530.5
2022-08-31T01:26:02.644Z,530.7
2022-08-31T01:27:04.180Z,530.8
2022-08-31T01:28:05.698Z,531.2
2022-08-31T01:29:07.238Z,530.8
2022-08-31T01:30:09.174Z,530.8
2022-08-31T01:31:11.289Z,530.8
2022-08-31T01:32:13.068Z,531
2022-08-31T01:33:14.860Z,530.3
2022-08-31T01:34:19.328Z,530.2
2022-08-31T01:35:20.861Z,530.4
2022-08-31T01:36:25.994Z,530.7
2022-08-31T01:37:30.700Z,531
2022-08-31T01:38:32.296Z,530.9
2022-08-31T01:39:33.800Z,531.1
2022-08-31T01:40:35.678Z,531
2022-08-31T01:41:37.333Z,530.9
2022-08-31T01:42:38.866Z,531
2022-08-31T01:43:41.099Z,530.8
2022-08-31T01:44:42.763Z,530.9
2022-08-31T01:45:44.307Z,530.9
2022-08-31T01:46:46.192Z,530.9
2022-08-31T01:47:47.801Z,530.7
2022-08-31T01:48:49.343Z,530.7
2022-08-31T01:49:58.144Z,531
2022-08-31T01:50:59.835Z,531.2
2022-08-31T01:52:01.450Z,531
2022-08-31T01:53:02.987Z,530.8
2022-08-31T01:54:04.621Z,530.8
2022-08-31T01:55:06.263Z,530.8
2022-08-31T01:56:08.111Z,531.4
2022-08-31T01:57:09.663Z,531.3
2022-08-31T01:58:11.409Z,531.1
2022-08-31T01:59:12.951Z,530.9
2022-08-31T02:00:14.613Z,531.2
2022-08-31T02:01:35.266Z,530.9
2022-08-31T02:02:37.374Z,531
2022-08-31T02:03:38.947Z,531.1
2022-08-31T02:04:40.503Z,530.9
2022-08-31T02:05:42.039Z,531
2022-08-31T02:06:43.817Z,530.9
2022-08-31T02:07:45.363Z,531
2022-08-31T02:08:46.941Z,531.3
2022-08-31T02:09:48.564Z,531.4
2022-08-31T02:10:50.103Z,531.2
2022-08-31T02:11:51.838Z,531.7
2022-08-31T02:12:53.385Z,531.6
2022-08-31T02:13:55.130Z,531.4
2022-08-31T02:14:56.675Z,531.5
2022-08-31T02:15:58.739Z,531.5
2022-08-31T02:17:00.350Z,531.6
2022-08-31T02:18:03.823Z,531.5
2022-08-31T02:19:05.548Z,531.6
2022-08-31T02:20:07.182Z,531.7
2022-08-31T02:21:08.715Z,531.8
2022-08-31T02:22:10.379Z,531.6
2022-08-31T02:23:12.123Z,531.6
2022-08-31T02:24:13.763Z,531.5
2022-08-31T02:25:15.301Z,531.8
2022-08-31T02:26:16.844Z,531.9
2022-08-31T02:27:18.507Z,531.6
2022-08-31T02:28:20.138Z,531.6
2022-08-31T02:29:21.670Z,531.9
2022-08-31T02:30:23.217Z,531.4
2022-08-31T02:31:25.238Z,532
2022-08-31T02:32:27.008Z,531.8
2022-08-31T02:33:31.724Z,531.7
2022-08-31T02:34:33.272Z,531.9
2022-08-31T02:35:34.817Z,531.8
2022-08-31T02:36:36.658Z,531.9
2022-08-31T02:37:38.426Z,531.8
2022-08-31T02:38:39.972Z,531.8
2022-08-31T02:39:41.926Z,531.8
2022-08-31T02:40:44.524Z,531.4
2022-08-31T02:41:46.234Z,531.6
2022-08-31T02:42:54.626Z,531.7
2022-08-31T02:43:56.237Z,531.6
2022-08-31T02:44:57.794Z,531.3
2022-08-31T02:45:59.861Z,531.4
2022-08-31T02:47:01.602Z,531.3
2022-08-31T02:48:03.225Z,531.2
2022-08-31T02:49:04.768Z,530.9
2022-08-31T02:50:06.362Z,530.8
2022-08-31T02:51:08.196Z,531.1
2022-08-31T02:52:09.852Z,531.2
2022-08-31T02:53:11.695Z,530.8
2022-08-31T02:54:13.349Z,531.3
2022-08-31T02:55:14.968Z,531.5
2022-08-31T02:56:16.473Z,531.3
2022-08-31T02:57:17.983Z,531.5
2022-08-31T02:58:24.627Z,531.6
2022-08-31T02:59:26.285Z,531.7
2022-08-31T03:00:27.911Z,531.6
2022-08-31T03:01:29.911Z,531.8
2022-08-31T03:02:32.841Z,531.6
2022-08-31T03:03:34.458Z,532
2022-08-31T03:04:36.045Z,531.8
2022-08-31T03:05:37.594Z,532
2022-08-31T03:06:39.140Z,532
2022-08-31T03:07:40.754Z,531.9
2022-08-31T03:08:42.448Z,531.6
2022-08-31T03:09:45.263Z,531.6
2022-08-31T03:10:46.943Z,531.6
2022-08-31T03:11:48.484Z,531.5
2022-08-31T03:12:50.030Z,531.7
2022-08-31T03:13:59.225Z,531.5
2022-08-31T03:15:00.883Z,531.6
2022-08-31T03:16:02.966Z,531.5
2022-08-31T03:17:04.636Z,531.6
2022-08-31T03:18:07.744Z,531.8
2022-08-31T03:19:09.348Z,531.6
2022-08-31T03:20:10.911Z,531.8
2022-08-31T03:21:12.513Z,531.8
2022-08-31T03:22:14.050Z,531.5
2022-08-31T03:23:15.677Z,531.4
2022-08-31T03:24:17.519Z,531.8
2022-08-31T03:25:19.186Z,532.1
2022-08-31T03:26:20.806Z,532
2022-08-31T03:27:22.388Z,532.3
2022-08-31T03:28:23.977Z,532.5
2022-08-31T03:29:25.691Z,532.4
2022-08-31T03:30:31.918Z,532.2
2022-08-31T03:31:34.011Z,532.6
2022-08-31T03:32:35.676Z,532.4
2022-08-31T03:33:37.216Z,532.7
2022-08-31T03:34:38.892Z,532.8
2022-08-31T03:35:40.450Z,532.8
2022-08-31T03:36:41.986Z,532.6
2022-08-31T03:37:45.774Z,532.9
2022-08-31T03:38:47.413Z,533
2022-08-31T03:39:49.003Z,532.6
2022-08-31T03:40:50.897Z,532.8
2022-08-31T03:41:52.538Z,532.9
2022-08-31T03:42:54.072Z,532.6
2022-08-31T03:43:55.753Z,532.8
2022-08-31T03:44:57.537Z,533.1
2022-08-31T03:45:59.475Z,532.6
2022-08-31T03:47:01.219Z,533.1
2022-08-31T03:48:02.742Z,533.2
2022-08-31T03:49:04.392Z,533
2022-08-31T03:50:05.920Z,533.3
2022-08-31T03:51:07.599Z,533.3
2022-08-31T03:52:09.418Z,533.2
2022-08-31T03:53:11.399Z,533.4
2022-08-31T03:54:12.976Z,533.7
2022-08-31T03:55:14.514Z,533.2
2022-08-31T03:56:16.195Z,533.3
2022-08-31T03:57:17.738Z,533
2022-08-31T03:58:19.270Z,532.9
2022-08-31T03:59:20.858Z,532.9
2022-08-31T04:00:22.390Z,532.9
2022-08-31T04:01:24.350Z,532.7
2022-08-31T04:02:26.598Z,532.6
2022-08-31T04:03:28.406Z,533.2
2022-08-31T04:04:30.073Z,532.8
2022-08-31T04:05:31.607Z,532.8
2022-08-31T04:06:33.213Z,532.9
2022-08-31T04:07:43.574Z,532.4
2022-08-31T04:08:45.106Z,532.6
2022-08-31T04:09:46.745Z,532.4
2022-08-31T04:10:48.447Z,532.4
2022-08-31T04:11:52.512Z,532
2022-08-31T04:12:56.978Z,532.2
2022-08-31T04:13:58.554Z,532.2
2022-08-31T04:15:00.089Z,532.2
2022-08-31T04:16:02.336Z,532.1
2022-08-31T04:17:03.967Z,531.8
2022-08-31T04:18:05.495Z,531.6
2022-08-31T04:19:08.641Z,531.7
2022-08-31T04:20:10.311Z,531.6
2022-08-31T04:21:11.864Z,531.5
2022-08-31T04:22:13.426Z,531.3
2022-08-31T04:23:15.072Z,531.6
2022-08-31T04:24:16.694Z,531.6
2022-08-31T04:25:21.958Z,531.6
2022-08-31T04:26:23.487Z,531.5
2022-08-31T04:27:25.029Z,531.4
2022-08-31T04:28:26.593Z,531.5
2022-08-31T04:29:28.196Z,531.2
2022-08-31T04:30:29.742Z,531
2022-08-31T04:31:31.922Z,530.8
2022-08-31T04:32:33.658Z,530.5
2022-08-31T04:33:36.407Z,530.6
2022-08-31T04:34:37.950Z,530.7
2022-08-31T04:35:39.491Z,530.9
2022-08-31T04:36:41.600Z,531
2022-08-31T04:37:48.341Z,530.7
2022-08-31T04:38:49.957Z,530.9
2022-08-31T04:39:52.764Z,530.7
2022-08-31T04:40:54.813Z,531
2022-08-31T04:41:56.355Z,531.2
2022-08-31T04:42:57.909Z,530.8
2022-08-31T04:43:59.511Z,530.6
2022-08-31T04:45:01.048Z,530.9
2022-08-31T04:46:02.768Z,531
2022-08-31T04:47:04.320Z,530.7
2022-08-31T04:48:07.015Z,531
2022-08-31T04:49:08.562Z,531
2022-08-31T04:50:10.103Z,531.2
2022-08-31T04:51:11.803Z,531.3
2022-08-31T04:52:13.345Z,531.1
2022-08-31T04:53:15.683Z,531
2022-08-31T04:54:17.258Z,531.4
2022-08-31T04:55:18.792Z,530.9
2022-08-31T04:56:20.388Z,530.9
2022-08-31T04:57:21.916Z,531.1
2022-08-31T04:58:23.468Z,531
2022-08-31T04:59:25.069Z,531
2022-08-31T05:00:26.631Z,531.3
2022-08-31T05:01:44.015Z,531.2
2022-08-31T05:02:53.446Z,531.1
2022-08-31T05:03:55.044Z,531
2022-08-31T05:04:56.579Z,531.6
2022-08-31T05:05:58.129Z,531.5
2022-08-31T05:06:59.698Z,531.5
2022-08-31T05:08:01.353Z,531.4
2022-08-31T05:09:02.972Z,531.5
2022-08-31T05:10:04.518Z,531.4
2022-08-31T05:11:06.930Z,531.5
2022-08-31T05:12:08.547Z,531.1
2022-08-31T05:13:10.123Z,531.3
2022-08-31T05:14:11.674Z,531.5
2022-08-31T05:15:13.295Z,531.4
2022-08-31T05:16:15.197Z,531.5
2022-08-31T05:17:16.895Z,531.6
2022-08-31T05:18:18.513Z,531.4
2022-08-31T05:19:20.155Z,531.7
2022-08-31T05:20:21.698Z,531.7
2022-08-31T05:21:23.243Z,532
2022-08-31T05:22:24.812Z,531.9
2022-08-31T05:23:26.415Z,532
2022-08-31T05:24:30.748Z,532.1
2022-08-31T05:25:32.302Z,531.8
2022-08-31T05:26:33.860Z,532.2
2022-08-31T05:27:35.591Z,532.2
2022-08-31T05:28:37.103Z,532.1
2022-08-31T05:29:38.641Z,532.5
2022-08-31T05:30:40.492Z,532.6
2022-08-31T05:31:42.139Z,532.5
2022-08-31T05:32:43.724Z,532.7
2022-08-31T05:33:45.261Z,532.9
2022-08-31T05:34:46.800Z,532.9
2022-08-31T05:35:48.423Z,532.7
2022-08-31T05:36:49.957Z,532.7
2022-08-31T05:37:51.604Z,532.6
2022-08-31T05:39:01.639Z,532.8
2022-08-31T05:40:03.707Z,532.7
2022-08-31T05:41:05.304Z,532.9
2022-08-31T05:42:06.846Z,532.9
2022-08-31T05:43:08.446Z,532.9
2022-08-31T05:44:10.004Z,532.8
2022-08-31T05:45:11.588Z,533.2
2022-08-31T05:46:13.591Z,533.1
2022-08-31T05:47:15.146Z,533.8
2022-08-31T05:48:16.733Z,533.6
2022-08-31T05:49:18.672Z,533.7
2022-08-31T05:50:20.241Z,533.9
2022-08-31T05:51:22.307Z,534.1
2022-08-31T05:52:26.406Z,534
2022-08-31T05:53:28.359Z,534
2022-08-31T05:54:30.215Z,534
2022-08-31T05:55:31.868Z,534
2022-08-31T05:56:33.438Z,534
2022-08-31T05:57:34.970Z,534
2022-08-31T05:58:36.565Z,533.9
2022-08-31T05:59:38.138Z,534
2022-08-31T06:00:39.669Z,534
2022-08-31T06:01:41.544Z,534.1
2022-08-31T06:02:43.142Z,534
2022-08-31T06:03:45.016Z,534.3
2022-08-31T06:04:46.910Z,534.3
2022-08-31T06:05:48.472Z,534
2022-08-31T06:06:50.020Z,534.4
2022-08-31T06:07:51.597Z,534.3
2022-08-31T06:08:53.285Z,534.4
2022-08-31T06:09:54.889Z,534.3
2022-08-31T06:10:56.420Z,534.9
2022-08-31T06:11:57.954Z,534.8
2022-08-31T06:12:59.496Z,535
2022-08-31T06:14:01.101Z,535.1
2022-08-31T06:15:02.651Z,535.7
2022-08-31T06:16:04.795Z,535.5
2022-08-31T06:17:06.351Z,535.5
2022-08-31T06:18:07.911Z,535.4
2022-08-31T06:19:09.445Z,535.6
2022-08-31T06:20:18.507Z,535.6
2022-08-31T06:21:20.055Z,535.4
2022-08-31T06:22:21.634Z,535.3
2022-08-31T06:23:23.227Z,535.5
2022-08-31T06:24:24.800Z,535.8
2022-08-31T06:25:26.347Z,535.4
2022-08-31T06:26:27.888Z,535.6
2022-08-31T06:27:29.441Z,535.8
2022-08-31T06:28:31.031Z,535.7
2022-08-31T06:29:32.662Z,536.2
2022-08-31T06:30:56.001Z,535.9
2022-08-31T06:31:57.610Z,535.9
2022-08-31T06:32:59.489Z,536.3
2022-08-31T06:34:01.039Z,536
2022-08-31T06:35:02.604Z,536.5
2022-08-31T06:36:04.631Z,536.4
2022-08-31T06:37:06.173Z,536.7
2022-08-31T06:38:07.711Z,536.4
2022-08-31T06:39:09.240Z,536.3
2022-08-31T06:40:11.109Z,536.4
2022-08-31T06:41:12.692Z,535.7
2022-08-31T06:42:14.230Z,535.8
2022-08-31T06:43:16.136Z,535.7
2022-08-31T06:44:17.669Z,535.4
2022-08-31T06:45:19.334Z,535.6
2022-08-31T06:46:21.150Z,535.3
2022-08-31T06:47:24.769Z,535.3
2022-08-31T06:48:26.351Z,535.4
2022-08-31T06:49:27.901Z,535.2
2022-08-31T06:50:29.501Z,535.1
2022-08-31T06:51:31.094Z,535.2
2022-08-31T06:52:39.410Z,535.1
2022-08-31T06:53:41.021Z,535
2022-08-31T06:54:42.542Z,534.9
2022-08-31T06:55:44.190Z,535
2022-08-31T06:56:45.690Z,535
2022-08-31T06:57:49.748Z,535.2
2022-08-31T06:58:54.622Z,535.3
2022-08-31T06:59:56.152Z,535
2022-08-31T07:00:58.876Z,535.1
2022-08-31T07:02:02.008Z,535.2
2022-08-31T07:03:04.261Z,535.1
2022-08-31T07:04:05.923Z,535
2022-08-31T07:05:25.005Z,534.9
2022-08-31T07:06:26.709Z,534.8
2022-08-31T07:07:28.389Z,535
2022-08-31T07:08:30.024Z,535
2022-08-31T07:09:31.684Z,535.1
2022-08-31T07:10:33.408Z,535.1
2022-08-31T07:11:35.182Z,534.8
2022-08-31T07:12:36.723Z,535.1
2022-08-31T07:13:38.272Z,535.2
2022-08-31T07:14:39.810Z,535.3
2022-08-31T07:15:41.412Z,534.9
2022-08-31T07:16:43.627Z,535.2
2022-08-31T07:17:45.366Z,535
2022-08-31T07:18:46.884Z,535
2022-08-31T07:19:48.548Z,535.3
2022-08-31T07:20:50.192Z,535.4
2022-08-31T07:21:54.762Z,535.4
2022-08-31T07:22:58.980Z,535.5
2022-08-31T07:24:00.615Z,535.4
2022-08-31T07:25:02.397Z,535.5
2022-08-31T07:26:04.042Z,535.4
2022-08-31T07:27:05.757Z,535
2022-08-31T07:28:07.337Z,535.2
2022-08-31T07:29:08.959Z,535
2022-08-31T07:30:10.547Z,535.4
2022-08-31T07:31:12.374Z,535.1
2022-08-31T07:32:14.013Z,535.3
2022-08-31T07:33:15.811Z,535.1
2022-08-31T07:34:17.479Z,535.1
2022-08-31T07:35:19.024Z,535.3
2022-08-31T07:36:20.564Z,535.1
2022-08-31T07:37:22.102Z,535.2
2022-08-31T07:38:23.753Z,535.1
2022-08-31T07:39:25.574Z,535
2022-08-31T07:40:27.607Z,535
2022-08-31T07:41:29.387Z,534.9
2022-08-31T07:42:30.924Z,535.1
2022-08-31T07:43:34.023Z,535
2022-08-31T07:44:35.534Z,535.1
2022-08-31T07:45:40.608Z,535.5
2022-08-31T07:46:43.291Z,534.9
2022-08-31T07:47:44.933Z,535.3
2022-08-31T07:48:46.466Z,535.4
2022-08-31T07:49:48.005Z,535.5
2022-08-31T07:50:49.674Z,535.4
2022-08-31T07:51:51.326Z,535.7
2022-08-31T07:52:52.859Z,535.6
2022-08-31T07:53:54.432Z,535.9
2022-08-31T07:54:56.215Z,535.6
2022-08-31T07:55:57.743Z,535.7
2022-08-31T07:56:59.288Z,535.9
2022-08-31T07:58:00.981Z,536
2022-08-31T07:59:02.594Z,535.9
2022-08-31T08:00:04.221Z,536
2022-08-31T08:01:05.841Z,536
2022-08-31T08:02:08.280Z,535.9
2022-08-31T08:03:10.431Z,536
2022-08-31T08:04:12.153Z,536.4
2022-08-31T08:05:16.403Z,536.1
2022-08-31T08:06:18.115Z,536.3
2022-08-31T08:07:22.426Z,536.6
2022-08-31T08:08:24.273Z,536.6
2022-08-31T08:09:26.432Z,536.7
2022-08-31T08:10:28.373Z,536.8
2022-08-31T08:11:30.137Z,536.7
2022-08-31T08:12:35.214Z,536.7
2022-08-31T08:13:37.503Z,537.3
2022-08-31T08:14:39.039Z,537.1
2022-08-31T08:15:41.221Z,537.1
2022-08-31T08:16:43.231Z,536.9
2022-08-31T08:17:44.979Z,536.9
2022-08-31T08:18:46.845Z,537
2022-08-31T08:19:50.166Z,537.2
2022-08-31T08:20:51.905Z,537
2022-08-31T08:21:53.648Z,537.2
2022-08-31T08:22:56.413Z,537.3
2022-08-31T08:23:58.257Z,537.4
2022-08-31T08:25:02.371Z,537.3
2022-08-31T08:26:04.901Z,537.4
2022-08-31T08:27:07.009Z,537.3
2022-08-31T08:28:41.593Z,537.3
2022-08-31T08:29:43.373Z,537.1
2022-08-31T08:30:46.629Z,537.5
2022-08-31T08:31:48.735Z,537.5
2022-08-31T08:32:50.318Z,537.6
2022-08-31T08:33:51.915Z,537.5
2022-08-31T08:34:53.497Z,537.3
2022-08-31T08:35:55.241Z,537.5
2022-08-31T08:36:56.900Z,537.7
2022-08-31T08:38:08.297Z,537.7
2022-08-31T08:39:13.758Z,538.1
2022-08-31T08:40:15.811Z,537.9
2022-08-31T08:41:17.400Z,537.9
2022-08-31T08:42:18.924Z,538
2022-08-31T08:43:21.224Z,537.6
2022-08-31T08:44:22.870Z,537.9
2022-08-31T08:45:24.521Z,537.9
2022-08-31T08:46:36.453Z,538.3
2022-08-31T08:47:40.351Z,538.7
2022-08-31T08:48:44.708Z,538.4
2022-08-31T08:49:55.074Z,538.4
2022-08-31T08:50:56.718Z,538.6
2022-08-31T08:51:58.319Z,538.7
2022-08-31T08:52:59.858Z,539
2022-08-31T08:54:01.398Z,539
2022-08-31T08:55:03.080Z,539
2022-08-31T08:56:34.521Z,538.9
2022-08-31T08:57:36.392Z,539.1
2022-08-31T08:58:37.937Z,539.4
2022-08-31T08:59:39.470Z,539.7
2022-08-31T09:00:41.086Z,539.6
2022-08-31T09:01:43.367Z,539.9
2022-08-31T09:02:45.435Z,540.1
2022-08-31T09:03:47.024Z,540.1
2022-08-31T09:04:48.639Z,540
2022-08-31T09:05:50.187Z,540
2022-08-31T09:06:55.186Z,540.4
2022-08-31T09:07:56.726Z,540.7
2022-08-31T09:08:58.530Z,540.7
2022-08-31T09:10:00.153Z,540.8
2022-08-31T09:11:01.756Z,540.9
2022-08-31T09:12:03.347Z,540.7
2022-08-31T09:13:04.942Z,540.8
2022-08-31T09:14:06.516Z,541
2022-08-31T09:15:08.164Z,541.1
2022-08-31T09:16:10.455Z,541.4
2022-08-31T09:17:13.527Z,541.4
2022-08-31T09:18:15.087Z,541.5
2022-08-31T09:19:16.645Z,541.7
2022-08-31T09:20:18.522Z,542
2022-08-31T09:21:20.193Z,541.9
2022-08-31T09:22:21.728Z,541.9
2022-08-31T09:23:23.236Z,542.1
2022-08-31T09:24:25.267Z,542.1
2022-08-31T09:25:26.873Z,541.8
2022-08-31T09:26:28.443Z,542.3
2022-08-31T09:27:30.045Z,542.3
2022-08-31T09:28:31.604Z,542.5
2022-08-31T09:29:33.199Z,542.6
2022-08-31T09:30:34.740Z,542.8
2022-08-31T09:31:36.855Z,542.9
2022-08-31T09:32:38.436Z,542.8
2022-08-31T09:33:40.095Z,542.9
2022-08-31T09:34:41.668Z,542.8
2022-08-31T09:35:43.250Z,542.9
2022-08-31T09:36:44.865Z,543.1
2022-08-31T09:37:46.834Z,543.2
2022-08-31T09:38:48.372Z,543.3
2022-08-31T09:39:49.918Z,542.9
2022-08-31T09:40:52.059Z,542.9
2022-08-31T09:41:53.692Z,543
2022-08-31T09:42:55.273Z,542.9
2022-08-31T09:43:56.900Z,543.1
2022-08-31T09:44:58.538Z,542.7
2022-08-31T09:46:00.400Z,543
2022-08-31T09:47:02.219Z,543.4
2022-08-31T09:48:03.758Z,543.5
2022-08-31T09:49:05.629Z,543.6
2022-08-31T09:50:07.622Z,544.5
2022-08-31T09:51:09.218Z,544.4
2022-08-31T09:52:10.763Z,544.9
2022-08-31T09:53:12.324Z,545.2
2022-08-31T09:54:13.849Z,545.6
2022-08-31T09:55:15.458Z,545.4
2022-08-31T09:56:17.166Z,546.2
2022-08-31T09:57:19.665Z,546.2
2022-08-31T09:58:21.250Z,546.1
2022-08-31T09:59:22.989Z,546.2
2022-08-31T10:00:24.530Z,546.6
2022-08-31T10:01:26.534Z,546.6
2022-08-31T10:02:28.193Z,546.5
2022-08-31T10:03:29.728Z,546.8
2022-08-31T10:04:31.281Z,546.7
2022-08-31T10:05:33.445Z,546.9
2022-08-31T10:06:36.063Z,547.5
2022-08-31T10:07:37.871Z,547
2022-08-31T10:08:39.760Z,547.3
2022-08-31T10:09:44.744Z,547
2022-08-31T10:10:46.512Z,547.3
2022-08-31T10:11:48.140Z,547.1
2022-08-31T10:12:49.988Z,547.2
2022-08-31T10:13:51.537Z,547.4
2022-08-31T10:14:53.095Z,547
2022-08-31T10:15:55.161Z,547.2
2022-08-31T10:16:56.752Z,547.5
2022-08-31T10:17:58.440Z,546.8
2022-08-31T10:19:00.010Z,547.3
2022-08-31T10:20:01.714Z,547.2
2022-08-31T10:21:08.783Z,547.5
2022-08-31T10:22:10.470Z,547.5
2022-08-31T10:23:12.278Z,547.5
2022-08-31T10:24:13.961Z,547.4
2022-08-31T10:25:15.543Z,547.9
2022-08-31T10:26:17.127Z,548.1
2022-08-31T10:27:18.857Z,548.7
2022-08-31T10:28:20.544Z,549.3
2022-08-31T10:29:24.127Z,549.6
2022-08-31T10:30:25.676Z,549.8
2022-08-31T10:31:27.642Z,550
2022-08-31T10:32:29.309Z,549.7
2022-08-31T10:33:30.859Z,549.9
2022-08-31T10:34:34.953Z,549.8
2022-08-31T10:35:36.651Z,549.9
2022-08-31T10:36:38.297Z,549.8
2022-08-31T10:37:40.130Z,550
2022-08-31T10:38:41.833Z,550.3
2022-08-31T10:39:43.453Z,550.3
2022-08-31T10:40:45.621Z,551.1
2022-08-31T10:41:47.188Z,550.9
2022-08-31T10:42:48.721Z,550.9
2022-08-31T10:43:50.369Z,551.3
2022-08-31T10:44:51.890Z,551.1
2022-08-31T10:45:54.029Z,551.6
2022-08-31T10:46:55.733Z,551.3
2022-08-31T10:47:57.538Z,551.3
2022-08-31T10:48:59.106Z,550.7
2022-08-31T10:50:00.658Z,549.9
2022-08-31T10:51:02.172Z,549.5
2022-08-31T10:52:03.713Z,549.5
2022-08-31T10:53:05.321Z,549.1
2022-08-31T10:54:06.970Z,548.4
2022-08-31T10:55:08.643Z,548.2
2022-08-31T10:56:10.291Z,548.5
2022-08-31T10:57:31.377Z,548.4
2022-08-31T10:58:33.139Z,548
2022-08-31T10:59:34.778Z,547.9
2022-08-31T11:00:36.291Z,548
2022-08-31T11:01:38.505Z,547.9
2022-08-31T11:02:40.067Z,548
2022-08-31T11:03:41.721Z,547.9
2022-08-31T11:04:43.656Z,547.2
2022-08-31T11:05:51.579Z,547.1
2022-08-31T11:06:53.124Z,547.2
2022-08-31T11:07:54.756Z,547.4
2022-08-31T11:08:56.556Z,547
2022-08-31T11:09:58.590Z,547.2
2022-08-31T11:11:00.164Z,547.5
2022-08-31T11:12:01.696Z,547.7
2022-08-31T11:13:03.228Z,547.5
2022-08-31T11:14:04.767Z,547.3
2022-08-31T11:15:06.356Z,547.5
2022-08-31T11:16:08.243Z,547.1
2022-08-31T11:17:12.694Z,546.6
2022-08-31T11:18:14.687Z,546.1
2022-08-31T11:19:16.355Z,546
2022-08-31T11:20:18.113Z,545.7
2022-08-31T11:21:19.717Z,545.4
2022-08-31T11:22:21.329Z,545.6
2022-08-31T11:23:22.962Z,545.6
2022-08-31T11:24:24.532Z,545.4
2022-08-31T11:25:26.215Z,545.6
2022-08-31T11:26:27.846Z,545.8
2022-08-31T11:27:29.388Z,546.1
2022-08-31T11:28:30.992Z,546.4
2022-08-31T11:29:34.849Z,546.4
2022-08-31T11:30:42.949Z,546.6
2022-08-31T11:31:45.378Z,547.1
2022-08-31T11:32:47.174Z,547.4
2022-08-31T11:34:17.800Z,547.3
2022-08-31T11:35:19.462Z,546.7
2022-08-31T11:36:21.113Z,546.2
2022-08-31T11:37:22.866Z,546
2022-08-31T11:38:24.414Z,545.6
2022-08-31T11:39:26.217Z,545.4
2022-08-31T11:40:28.045Z,545.2
2022-08-31T11:41:29.620Z,545.2
2022-08-31T11:42:31.378Z,545.2
2022-08-31T11:43:33.119Z,544.9
2022-08-31T11:44:35.067Z,544.9
2022-08-31T11:45:36.698Z,545.2
2022-08-31T11:46:41.356Z,545.3
2022-08-31T11:47:43.090Z,545.1
2022-08-31T11:48:44.614Z,545.5
2022-08-31T11:49:46.165Z,545.1
2022-08-31T11:50:47.705Z,545.4
2022-08-31T11:51:49.379Z,545.5
2022-08-31T11:52:50.921Z,545.9
2022-08-31T11:53:52.521Z,545.8
2022-08-31T11:54:54.068Z,545.6
2022-08-31T11:55:55.576Z,545.7
2022-08-31T11:56:57.680Z,545.7
2022-08-31T11:57:59.220Z,546.1
2022-08-31T11:59:00.898Z,545.8
2022-08-31T12:00:02.620Z,545.9
2022-08-31T12:01:04.277Z,546.3
2022-08-31T12:02:06.207Z,546.1
2022-08-31T12:03:07.863Z,546.2
2022-08-31T12:04:09.396Z,546.5
2022-08-31T12:05:11.339Z,546.4
2022-08-31T12:06:13.018Z,546.5
2022-08-31T12:07:14.661Z,546.5
2022-08-31T12:08:16.305Z,546
2022-08-31T12:09:17.900Z,546.5
2022-08-31T12:10:25.393Z,546
2022-08-31T12:11:28.505Z,546
2022-08-31T12:12:30.156Z,545.9
2022-08-31T12:13:31.689Z,545.9
2022-08-31T12:14:33.306Z,545.9
2022-08-31T12:15:35.272Z,545.7
2022-08-31T12:16:37.126Z,545.7
2022-08-31T12:17:38.665Z,545.6
2022-08-31T12:18:40.281Z,545.3
2022-08-31T12:19:41.813Z,544.9
2022-08-31T12:20:43.348Z,544.7
2022-08-31T12:21:45.050Z,544.4
2022-08-31T12:22:46.710Z,544.5
2022-08-31T12:23:48.357Z,544.1
2022-08-31T12:24:50.279Z,543.9
2022-08-31T12:25:52.409Z,543.8
2022-08-31T12:26:53.978Z,543.5
2022-08-31T12:27:55.591Z,543.3
2022-08-31T12:28:57.143Z,543.2
2022-08-31T12:29:58.843Z,542.8
2022-08-31T12:31:00.815Z,542.7
2022-08-31T12:32:02.687Z,542.3
2022-08-31T12:33:05.114Z,541.8
2022-08-31T12:34:06.657Z,541.7
2022-08-31T12:35:08.244Z,541.3
2022-08-31T12:36:09.789Z,541.4
2022-08-31T12:37:11.314Z,540.8
2022-08-31T12:38:13.212Z,540.8
2022-08-31T12:39:14.827Z,540.6
2022-08-31T12:40:16.938Z,540.3
2022-08-31T12:41:25.827Z,540.3
2022-08-31T12:42:27.354Z,539.7
2022-08-31T12:43:29.214Z,539.3
2022-08-31T12:44:30.832Z,539
2022-08-31T12:45:32.392Z,538.7
2022-08-31T12:46:34.909Z,538.9
2022-08-31T12:47:38.573Z,538.9
2022-08-31T12:48:40.228Z,538.9
2022-08-31T12:49:41.762Z,539
2022-08-31T12:50:43.295Z,538.2
2022-08-31T12:51:44.838Z,538.6
2022-08-31T12:52:46.406Z,538.4
2022-08-31T12:53:48.079Z,538.1
2022-08-31T12:54:49.700Z,538.7
2022-08-31T12:55:51.298Z,539.1
2022-08-31T12:56:52.894Z,539.6
2022-08-31T12:57:54.526Z,539.7
2022-08-31T12:58:56.172Z,540.1
2022-08-31T13:00:02.811Z,540
2022-08-31T13:01:10.639Z,539.9
2022-08-31T13:02:16.491Z,540.6
2022-08-31T13:03:22.623Z,540.7
2022-08-31T13:04:24.824Z,541.1
2022-08-31T13:05:26.418Z,541.6
2022-08-31T13:06:28.153Z,541.9
2022-08-31T13:07:29.910Z,542.5
2022-08-31T13:08:31.440Z,542.6
2022-08-31T13:09:33.093Z,542.4
2022-08-31T13:10:34.821Z,542.5
2022-08-31T13:11:42.117Z,542.5
2022-08-31T13:12:43.789Z,542
2022-08-31T13:13:45.322Z,542.2
2022-08-31T13:14:47.032Z,542.4
2022-08-31T13:15:48.573Z,542.6
2022-08-31T13:16:50.578Z,542.8
2022-08-31T13:17:52.272Z,542.8
2022-08-31T13:18:54.900Z,543.1
2022-08-31T13:19:56.483Z,543.3
2022-08-31T13:20:58.240Z,543.7
2022-08-31T13:21:59.915Z,543.5
2022-08-31T13:23:01.510Z,543.6
2022-08-31T13:24:03.088Z,543.8
2022-08-31T13:25:04.647Z,543.5
2022-08-31T13:26:06.689Z,543.1
2022-08-31T13:27:08.242Z,542.8
2022-08-31T13:28:09.880Z,542.6